createdAt,value
2018-09-11T00:04:35.732Z,15.8
2018-09-11T00:21:19.030Z,15.8
2018-09-11T00:38:02.336Z,15.8
2018-09-11T00:54:45.603Z,15.8
2018-09-11T01:28:11.863Z,15.5
2018-09-11T01:44:54.857Z,15.5
2018-09-11T02:01:37.677Z,15.2
2018-09-11T02:18:20.348Z,15.2
2018-09-11T02:35:03.107Z,15.2
2018-09-11T03:08:28.427Z,15.2
2018-09-11T04:32:00.795Z,14.9
2018-09-11T04:48:43.027Z,14.6
2018-09-11T05:05:25.249Z,14.6
2018-09-11T05:22:07.655Z,14.9
2018-09-11T05:38:50.068Z,14.9
2018-09-11T05:55:32.683Z,15.2
2018-09-11T06:12:15.431Z,15.5
2018-09-11T06:28:58.923Z,15.8
2018-09-11T06:45:42.884Z,16.2
2018-09-11T07:02:27.186Z,16.5
2018-09-11T07:39:18.079Z,18.4
2018-09-11T07:56:03.844Z,18.7
2018-09-11T08:12:50.497Z,19.0
2018-09-11T08:29:36.312Z,19.4
2018-09-11T08:46:23.005Z,19.4
2018-09-11T09:03:09.819Z,19.7
2018-09-11T09:19:56.969Z,19.7
2018-09-11T09:36:44.098Z,20.3
2018-09-11T09:53:32.424Z,21.0
2018-09-11T10:10:19.889Z,21.3
2018-09-11T10:27:08.270Z,21.6
2018-09-11T10:37:13.595Z,21.9
2018-09-11T10:54:02.578Z,22.2
2018-09-11T11:10:51.953Z,22.6
2018-09-11T11:27:41.697Z,23.2
2018-09-11T11:44:32.192Z,23.5
2018-09-11T12:01:22.707Z,23.5
2018-09-11T12:31:42.301Z,24.2
2018-09-11T12:48:33.620Z,24.5
2018-09-11T13:05:24.656Z,24.8
2018-09-11T13:39:08.313Z,24.8
2018-09-11T13:55:59.701Z,25.1
2018-09-11T14:12:51.779Z,25.1
2018-09-11T14:29:43.868Z,25.1
2018-09-11T14:46:36.249Z,25.4
2018-09-11T15:03:28.599Z,25.4
2018-09-11T15:20:20.883Z,25.4
2018-09-11T15:37:13.405Z,25.8
2018-09-11T15:54:06.242Z,26.1
2018-09-11T16:10:59.248Z,26.1
2018-09-11T16:27:51.993Z,25.4
2018-09-11T16:44:44.321Z,25.4
2018-09-11T16:54:51.649Z,24.8
2018-09-11T17:11:43.675Z,24.5
2018-09-11T17:28:34.611Z,24.2
2018-09-11T17:45:25.287Z,23.8
2018-09-11T18:02:15.859Z,23.5
2018-09-11T18:19:06.195Z,23.2
2018-09-11T18:35:56.290Z,22.9
2018-09-11T18:52:46.070Z,22.6
2018-09-11T19:09:35.477Z,22.2
2018-09-11T19:26:25.260Z,22.2
2018-09-11T19:43:13.656Z,21.9
2018-09-11T20:00:02.302Z,21.3
2018-09-11T20:33:38.880Z,21.0
2018-09-11T20:50:26.815Z,20.6
2018-09-11T21:07:14.399Z,20.3
2018-09-11T21:24:01.860Z,20.3
2018-09-11T21:40:49.150Z,20.0
2018-09-11T21:57:36.249Z,19.7
2018-09-11T22:14:23.102Z,19.7
2018-09-11T22:31:10.138Z,19.7
2018-09-11T22:47:57.122Z,19.4
2018-09-11T23:04:43.904Z,19.4
2018-09-11T23:21:30.387Z,19.4
2018-09-11T23:38:17.157Z,19.4
2018-09-11T23:55:04.085Z,19.4
